Time;durP1;ratioP1;P1;durP2;ratioP2;P2;SDS_P1;SDS_P2;PMS_P1;PMS_P2;Temp;Humidity;BMP_temperature;BMP_pressure;BME280_temperature;BME280_humidity;BME280_pressure;Samples;Min_cycle;Max_cycle;Signal;HPM_P1;HPM_P2
2022/05/29 00:00:14;;;;;;;;;;;10.40;99.90;;;;;;2621131;46;19942;31
2022/05/29 00:02:49;;;;;;;;;;;10.40;99.90;;;;;;2602600;54;19934;31
2022/05/29 00:05:22;;;;;;;;;;;10.40;99.90;;;;;;2602823;54;19935;31
2022/05/29 00:07:59;;;;;;;;;;;10.30;99.90;;;;;;2621524;47;20696;31
2022/05/29 00:10:38;;;;;;;;;;;10.30;99.90;;;;;;2602651;54;20772;31
2022/05/29 00:13:13;;;;;;;;;;;10.20;99.90;;;;;;2602251;54;21357;31
2022/05/29 00:15:49;;;;;;;;;;;10.20;99.90;;;;;;2602412;54;19935;31
2022/05/29 00:18:23;;;;;;;;;;;10.20;99.90;;;;;;2602585;54;20032;31
2022/05/29 00:21:00;;;;;;;;;;;10.10;99.90;;;;;;2621583;47;19935;31
2022/05/29 00:23:39;;;;;;;;;;;10.10;99.90;;;;;;2601978;54;20792;31
2022/05/29 00:26:17;;;;;;;;;;;10.10;99.90;;;;;;2602012;54;20030;31
2022/05/29 00:28:52;;;;;;;;;;;10.00;99.90;;;;;;2601824;54;19946;31
2022/05/29 00:31:29;;;;;;;;;;;10.00;99.90;;;;;;2701397;39;20977;31
2022/05/29 00:34:03;;;;;;;;;;;10.00;99.90;;;;;;2621038;47;19934;31
2022/05/29 00:36:40;;;;;;;;;;;9.90;99.90;;;;;;2621259;47;20675;31
2022/05/29 00:39:18;;;;;;;;;;;9.80;99.90;;;;;;2621045;47;19935;31
2022/05/29 00:41:56;;;;;;;;;;;9.90;99.90;;;;;;2602562;54;19947;31
2022/05/29 00:44:30;;;;;;;;;;;9.80;99.90;;;;;;2602564;54;19934;31
2022/05/29 00:47:12;;;;;;;;;;;9.80;99.90;;;;;;2602649;54;21318;31
2022/05/29 00:49:48;;;;;;;;;;;9.80;99.90;;;;;;2620929;47;19941;31
2022/05/29 00:52:23;;;;;;;;;;;9.70;99.90;;;;;;2602491;54;20779;31
2022/05/29 00:55:00;;;;;;;;;;;9.60;99.90;;;;;;2621044;47;19994;31
2022/05/29 00:57:37;;;;;;;;;;;9.60;99.90;;;;;;2602607;54;20740;31
2022/05/29 01:00:14;;;;;;;;;;;9.50;99.90;;;;;;2620811;47;19942;31
2022/05/29 01:02:51;;;;;;;;;;;9.50;99.90;;;;;;2620431;47;19931;31
2022/05/29 01:05:29;;;;;;;;;;;9.60;99.90;;;;;;2614082;47;19934;31
2022/05/29 01:08:07;;;;;;;;;;;9.50;99.90;;;;;;2603563;54;20678;31
2022/05/29 01:10:56;;;;;;;;;;;9.40;99.90;;;;;;2621925;46;19934;31
2022/05/29 01:13:33;;;;;;;;;;;9.30;99.90;;;;;;2603241;54;19972;31
2022/05/29 01:16:08;;;;;;;;;;;9.30;99.90;;;;;;2613442;46;20688;31
2022/05/29 01:18:50;;;;;;;;;;;9.30;99.90;;;;;;2602330;54;19938;31
2022/05/29 01:21:28;;;;;;;;;;;9.20;99.90;;;;;;2603369;54;19942;31
2022/05/29 01:24:22;;;;;;;;;;;9.20;99.90;;;;;;2605367;46;19935;31
2022/05/29 01:27:06;;;;;;;;;;;9.20;99.90;;;;;;2701835;39;21046;31
2022/05/29 01:29:45;;;;;;;;;;;9.10;99.90;;;;;;2621720;46;20783;31
2022/05/29 01:32:28;;;;;;;;;;;9.00;99.90;;;;;;2603099;54;19957;31
2022/05/29 01:35:05;;;;;;;;;;;9.00;99.90;;;;;;2621409;46;19935;31
2022/05/29 01:37:40;;;;;;;;;;;9.90;99.90;;;;;;2621509;46;19946;31
2022/05/29 01:40:17;;;;;;;;;;;9.00;99.90;;;;;;2603310;54;19942;31
2022/05/29 01:42:54;;;;;;;;;;;9.00;99.90;;;;;;2603342;54;19961;31
2022/05/29 01:45:34;;;;;;;;;;;9.00;99.90;;;;;;2621420;46;19941;31
2022/05/29 01:48:11;;;;;;;;;;;8.90;99.90;;;;;;2602541;54;19947;31
2022/05/29 01:50:48;;;;;;;;;;;8.90;99.90;;;;;;2621706;46;19935;31
2022/05/29 01:53:23;;;;;;;;;;;8.80;99.90;;;;;;2602647;54;19943;31
2022/05/29 01:56:00;;;;;;;;;;;8.80;99.90;;;;;;2621636;46;20751;31
2022/05/29 01:58:35;;;;;;;;;;;8.80;99.90;;;;;;2614883;46;19947;31
2022/05/29 02:01:13;;;;;;;;;;;8.90;99.90;;;;;;2603145;54;19934;31
2022/05/29 02:03:50;;;;;;;;;;;8.80;99.90;;;;;;2621599;46;20752;31
2022/05/29 02:06:26;;;;;;;;;;;8.70;99.90;;;;;;2614489;46;20488;31
2022/05/29 02:09:03;;;;;;;;;;;8.80;99.90;;;;;;2603022;54;20744;31
2022/05/29 02:11:38;;;;;;;;;;;8.70;99.90;;;;;;2603131;54;20796;31
2022/05/29 02:14:15;;;;;;;;;;;8.60;99.90;;;;;;2621736;46;20721;31
2022/05/29 02:16:54;;;;;;;;;;;8.60;99.90;;;;;;2603171;54;19939;31
2022/05/29 02:19:29;;;;;;;;;;;8.50;99.90;;;;;;2602925;54;20709;31
2022/05/29 02:22:06;;;;;;;;;;;8.50;99.90;;;;;;2621703;46;19978;31
2022/05/29 02:24:41;;;;;;;;;;;8.40;99.90;;;;;;2614114;46;19990;31
2022/05/29 02:27:18;;;;;;;;;;;8.40;99.90;;;;;;2603130;54;19941;31
2022/05/29 02:29:54;;;;;;;;;;;8.40;99.90;;;;;;2621500;46;20763;31
2022/05/29 02:32:32;;;;;;;;;;;8.40;99.90;;;;;;2603076;54;19938;31
2022/05/29 02:35:08;;;;;;;;;;;8.30;99.90;;;;;;2602728;54;20009;31
2022/05/29 02:37:45;;;;;;;;;;;8.30;99.90;;;;;;2621685;46;20841;31
2022/05/29 02:40:22;;;;;;;;;;;8.30;99.90;;;;;;2603155;54;19935;31
2022/05/29 02:43:00;;;;;;;;;;;8.20;99.90;;;;;;2603003;54;20795;31
2022/05/29 02:45:35;;;;;;;;;;;8.20;99.90;;;;;;2621631;46;20717;31
2022/05/29 02:48:14;;;;;;;;;;;8.10;99.90;;;;;;2602816;54;20669;31
2022/05/29 02:50:50;;;;;;;;;;;8.10;99.90;;;;;;2621409;46;19939;31
2022/05/29 02:53:27;;;;;;;;;;;8.10;99.90;;;;;;2621286;46;19943;31
2022/05/29 02:56:03;;;;;;;;;;;8.10;99.90;;;;;;2602723;54;20670;31
2022/05/29 02:58:37;;;;;;;;;;;8.10;99.90;;;;;;2603193;54;19935;31
2022/05/29 03:01:21;;;;;;;;;;;9.80;99.90;;;;;;2602974;54;19941;31
2022/05/29 03:03:59;;;;;;;;;;;8.00;99.90;;;;;;2603058;54;19941;31
2022/05/29 03:06:36;;;;;;;;;;;8.10;99.90;;;;;;2611969;46;20670;31
2022/05/29 03:09:17;;;;;;;;;;;8.00;99.90;;;;;;2614637;46;20778;31
2022/05/29 03:11:50;;;;;;;;;;;8.00;99.90;;;;;;2601979;54;19960;31
2022/05/29 03:14:28;;;;;;;;;;;8.00;99.90;;;;;;2621373;46;20045;31
2022/05/29 03:17:09;;;;;;;;;;;8.00;99.90;;;;;;2602073;54;20002;31
2022/05/29 03:19:47;;;;;;;;;;;8.10;99.90;;;;;;2601758;54;20798;31
2022/05/29 03:22:29;;;;;;;;;;;8.00;99.90;;;;;;2601778;54;19950;31
2022/05/29 03:25:05;;;;;;;;;;;8.00;99.90;;;;;;2601789;54;19938;31
2022/05/29 03:27:43;;;;;;;;;;;8.00;99.90;;;;;;2601855;54;20750;31
2022/05/29 03:30:23;;;;;;;;;;;8.00;99.90;;;;;;2602669;54;19941;31
2022/05/29 03:32:58;;;;;;;;;;;8.00;99.90;;;;;;2603023;54;19941;31
2022/05/29 03:35:33;;;;;;;;;;;8.10;99.90;;;;;;2620513;46;19934;31
2022/05/29 03:38:08;;;;;;;;;;;8.20;99.90;;;;;;2602921;54;19935;31
2022/05/29 03:40:44;;;;;;;;;;;8.30;99.90;;;;;;2602913;54;19935;31
2022/05/29 03:43:19;;;;;;;;;;;8.60;99.90;;;;;;2621650;46;20677;31
2022/05/29 03:45:56;;;;;;;;;;;8.70;99.90;;;;;;2602475;54;19935;31
2022/05/29 03:48:34;;;;;;;;;;;8.80;99.90;;;;;;2602628;54;19941;31
2022/05/29 03:51:09;;;;;;;;;;;8.90;99.90;;;;;;2621147;46;19938;31
2022/05/29 03:53:45;;;;;;;;;;;9.10;99.90;;;;;;2602969;54;20647;31
2022/05/29 03:56:19;;;;;;;;;;;9.30;99.90;;;;;;2602685;54;19935;31
2022/05/29 03:59:00;;;;;;;;;;;9.60;99.90;;;;;;2602563;54;19934;31
2022/05/29 04:01:39;;;;;;;;;;;9.90;99.90;;;;;;2621068;46;19935;31
2022/05/29 04:04:14;;;;;;;;;;;9.90;99.90;;;;;;2620998;47;19934;31
2022/05/29 04:06:49;;;;;;;;;;;10.20;99.90;;;;;;2602425;54;19989;31
2022/05/29 04:12:18;;;;;;;;;;;10.50;99.90;;;;;;2602541;54;20793;31
2022/05/29 04:14:54;;;;;;;;;;;10.70;99.90;;;;;;2620972;47;19935;31
2022/05/29 04:17:33;;;;;;;;;;;11.00;99.90;;;;;;2602645;54;19935;31
2022/05/29 04:20:14;;;;;;;;;;;11.20;99.90;;;;;;2621353;47;19994;31
2022/05/29 04:22:49;;;;;;;;;;;11.40;99.90;;;;;;2621086;47;20770;31
2022/05/29 04:25:24;;;;;;;;;;;11.60;99.90;;;;;;2602811;54;20748;31
2022/05/29 04:27:59;;;;;;;;;;;11.80;99.90;;;;;;2602573;54;19934;31
2022/05/29 04:30:37;;;;;;;;;;;12.00;99.90;;;;;;2617757;47;19964;31
2022/05/29 04:33:12;;;;;;;;;;;12.20;99.90;;;;;;2620884;47;19935;31
2022/05/29 04:35:52;;;;;;;;;;;12.40;99.90;;;;;;2621084;47;19935;31
2022/05/29 04:38:27;;;;;;;;;;;12.60;99.90;;;;;;2609247;47;19950;31
2022/05/29 04:41:02;;;;;;;;;;;12.80;99.90;;;;;;2602681;54;19949;31
2022/05/29 04:43:37;;;;;;;;;;;13.00;99.90;;;;;;2622035;46;20712;31
2022/05/29 04:46:13;;;;;;;;;;;13.10;99.90;;;;;;2603307;54;19981;31
2022/05/29 04:48:48;;;;;;;;;;;13.30;99.90;;;;;;2603653;54;19941;31
2022/05/29 04:51:25;;;;;;;;;;;13.50;99.90;;;;;;2603701;54;20762;31
2022/05/29 04:54:01;;;;;;;;;;;13.70;99.90;;;;;;2603591;54;20538;31
2022/05/29 04:56:39;;;;;;;;;;;13.80;99.90;;;;;;2622201;46;19935;31
2022/05/29 04:59:14;;;;;;;;;;;14.00;99.90;;;;;;2603428;54;20425;31
2022/05/29 05:01:52;;;;;;;;;;;14.20;99.90;;;;;;2622300;46;19941;31
2022/05/29 05:04:29;;;;;;;;;;;14.40;99.90;;;;;;2602850;54;20477;31
2022/05/29 05:07:11;;;;;;;;;;;14.60;99.90;;;;;;2616329;46;20857;31
2022/05/29 05:09:48;;;;;;;;;;;14.70;99.90;;;;;;2603641;54;20765;31
2022/05/29 05:12:23;;;;;;;;;;;14.90;99.90;;;;;;2622214;46;20806;31
2022/05/29 05:14:58;;;;;;;;;;;15.10;99.90;;;;;;2622362;46;19935;31
2022/05/29 05:17:40;;;;;;;;;;;15.30;99.90;;;;;;2622216;46;20791;31
2022/05/29 05:20:15;;;;;;;;;;;15.40;99.90;;;;;;2622254;46;20809;31
2022/05/29 05:22:53;;;;;;;;;;;15.60;99.90;;;;;;2603543;54;20812;31
2022/05/29 05:25:28;;;;;;;;;;;15.60;99.90;;;;;;2622383;46;19939;31
2022/05/29 05:28:03;;;;;;;;;;;15.80;99.90;;;;;;2602727;54;19943;31
2022/05/29 05:30:38;;;;;;;;;;;15.90;99.90;;;;;;2603862;54;19964;31
2022/05/29 05:33:13;;;;;;;;;;;16.10;99.90;;;;;;2602991;54;20207;31
2022/05/29 05:35:53;;;;;;;;;;;16.20;99.90;;;;;;2622014;46;20718;31
2022/05/29 05:38:34;;;;;;;;;;;16.30;99.90;;;;;;2622104;46;19941;31
2022/05/29 05:41:08;;;;;;;;;;;;;;;;;;2622003;46;20786;31
2022/05/29 05:43:42;;;;;;;;;;;;;;;;;;2602745;54;21523;31
2022/05/29 05:46:18;;;;;;;;;;;;;;;;;;2603445;54;20785;31
2022/05/29 05:48:54;;;;;;;;;;;16.90;99.90;;;;;;2603178;54;19934;31
2022/05/29 05:51:29;;;;;;;;;;;17.00;99.90;;;;;;2622000;46;20739;31
2022/05/29 05:54:10;;;;;;;;;;;17.10;99.90;;;;;;2622303;46;20681;31
2022/05/29 05:56:45;;;;;;;;;;;17.30;99.90;;;;;;2603426;54;19941;31
2022/05/29 05:59:20;;;;;;;;;;;17.40;99.90;;;;;;2603513;54;20715;31
2022/05/29 06:01:58;;;;;;;;;;;17.50;99.90;;;;;;2603671;54;19957;31
2022/05/29 06:04:33;;;;;;;;;;;17.60;99.90;;;;;;2603378;54;19961;31
2022/05/29 06:07:10;;;;;;;;;;;17.70;99.90;;;;;;2603211;54;20042;31
2022/05/29 06:09:48;;;;;;;;;;;17.90;99.90;;;;;;2602722;54;20815;31
2022/05/29 06:12:25;;;;;;;;;;;18.10;99.90;;;;;;2621937;46;19935;31
2022/05/29 06:15:00;;;;;;;;;;;18.30;99.90;;;;;;2603366;54;19998;31
2022/05/29 06:17:35;;;;;;;;;;;18.40;99.90;;;;;;2603431;54;19941;31
2022/05/29 06:20:11;;;;;;;;;;;18.60;99.90;;;;;;2603333;54;19980;31
2022/05/29 06:22:47;;;;;;;;;;;18.60;99.90;;;;;;2603480;54;20738;31
2022/05/29 06:25:26;;;;;;;;;;;18.50;99.90;;;;;;2617032;46;20775;31
2022/05/29 06:28:03;;;;;;;;;;;18.70;99.90;;;;;;2603203;54;19935;31
2022/05/29 06:30:38;;;;;;;;;;;19.00;99.90;;;;;;2603702;54;19935;31
2022/05/29 06:33:13;;;;;;;;;;;19.20;99.90;;;;;;2602558;54;19949;31
2022/05/29 06:35:49;;;;;;;;;;;19.20;99.90;;;;;;2603163;54;19941;31
2022/05/29 06:38:23;;;;;;;;;;;19.20;99.90;;;;;;2603223;54;19942;31
2022/05/29 06:41:01;;;;;;;;;;;19.30;99.90;;;;;;2621856;46;20008;31
2022/05/29 06:43:39;;;;;;;;;;;19.50;99.90;;;;;;2603222;54;20057;31
2022/05/29 06:46:14;;;;;;;;;;;19.60;99.90;;;;;;2621876;46;20747;31
2022/05/29 06:48:50;;;;;;;;;;;19.70;99.90;;;;;;2603070;54;20001;31
2022/05/29 06:51:27;;;;;;;;;;;19.80;99.90;;;;;;2621966;46;20022;31
2022/05/29 06:54:04;;;;;;;;;;;19.90;99.90;;;;;;2603307;54;20025;31
2022/05/29 06:56:39;;;;;;;;;;;19.90;99.90;;;;;;2603431;54;19935;31
2022/05/29 06:59:17;;;;;;;;;;;20.00;99.90;;;;;;2603202;54;19934;31
2022/05/29 07:07:33;;;;;;;;;;;20.50;99.20;;;;;;2603178;54;19934;31
2022/05/29 07:10:11;;;;;;;;;;;20.60;99.40;;;;;;2621720;46;19989;31
2022/05/29 07:12:53;;;;;;;;;;;20.80;99.00;;;;;;2603038;54;20710;31
2022/05/29 07:15:28;;;;;;;;;;;20.90;97.20;;;;;;2614432;46;19942;31
2022/05/29 07:18:07;;;;;;;;;;;21.00;96.70;;;;;;2621712;46;20013;31
2022/05/29 07:20:43;;;;;;;;;;;21.10;97.00;;;;;;2621658;46;20771;31
2022/05/29 07:23:20;;;;;;;;;;;21.10;96.50;;;;;;2720438;39;21466;31
2022/05/29 07:25:54;;;;;;;;;;;21.20;96.10;;;;;;2603134;54;19946;31
2022/05/29 07:28:37;;;;;;;;;;;21.20;95.00;;;;;;2701505;39;21436;31
2022/05/29 07:31:13;;;;;;;;;;;21.30;94.00;;;;;;2602359;54;19934;31
2022/05/29 07:33:49;;;;;;;;;;;21.40;94.20;;;;;;2602229;54;20018;31
2022/05/29 07:36:26;;;;;;;;;;;21.70;94.20;;;;;;2603139;54;19938;31
2022/05/29 07:39:08;;;;;;;;;;;21.70;94.20;;;;;;2621723;46;19934;31
2022/05/29 07:44:33;;;;;;;;;;;21.70;92.70;;;;;;2621554;46;19938;31
2022/05/29 07:49:48;;;;;;;;;;;22.00;92.70;;;;;;2603036;54;20045;31
2022/05/29 07:52:24;;;;;;;;;;;22.10;93.30;;;;;;2603267;54;19946;31
2022/05/29 07:55:06;;;;;;;;;;;22.10;91.40;;;;;;2701157;39;20435;31
2022/05/29 07:57:41;;;;;;;;;;;22.00;91.10;;;;;;2603184;54;19994;31
2022/05/29 08:00:17;;;;;;;;;;;22.20;91.70;;;;;;2602125;54;20498;31
2022/05/29 08:02:54;;;;;;;;;;;22.30;90.80;;;;;;2602621;54;21277;31
2022/05/29 08:05:34;;;;;;;;;;;22.30;88.50;;;;;;2621261;46;19941;31
2022/05/29 08:08:09;;;;;;;;;;;22.50;88.90;;;;;;2602903;54;19935;31
2022/05/29 08:10:46;;;;;;;;;;;22.60;90.40;;;;;;2602628;54;20009;31
2022/05/29 08:13:24;;;;;;;;;;;22.60;88.60;;;;;;2602494;54;20731;31
2022/05/29 08:15:59;;;;;;;;;;;22.80;90.00;;;;;;2603677;54;19943;31
2022/05/29 08:18:35;;;;;;;;;;;22.70;86.80;;;;;;2603552;54;19935;31
2022/05/29 08:21:09;;;;;;;;;;;22.40;86.20;;;;;;2603453;54;19935;31
2022/05/29 08:30:37;;;;;;;;;;;22.40;85.00;;;;;;2603773;54;19939;31
2022/05/29 08:32:37;;;;;;;;;;;22.80;83.60;;;;;;2603908;54;19935;31
2022/05/29 08:35:12;;;;;;;;;;;23.00;82.60;;;;;;2603614;54;20672;31
2022/05/29 08:37:46;;;;;;;;;;;23.10;83.50;;;;;;2603781;54;20810;31
2022/05/29 08:40:22;;;;;;;;;;;23.20;82.50;;;;;;2603608;54;20714;31
2022/05/29 08:42:56;;;;;;;;;;;23.30;81.90;;;;;;2622414;46;19941;31
2022/05/29 08:45:35;;;;;;;;;;;23.40;83.90;;;;;;2603587;54;19935;31
2022/05/29 08:48:10;;;;;;;;;;;23.10;82.00;;;;;;2701915;39;21379;31
2022/05/29 08:50:47;;;;;;;;;;;22.50;82.40;;;;;;2622242;46;19938;31
2022/05/29 08:53:25;;;;;;;;;;;22.60;82.20;;;;;;2614854;46;20811;31
2022/05/29 08:56:10;;;;;;;;;;;22.60;84.40;;;;;;2603320;54;19934;31
2022/05/29 08:58:47;;;;;;;;;;;22.80;83.80;;;;;;2616763;46;20811;31
2022/05/29 09:01:26;;;;;;;;;;;23.00;82.80;;;;;;2603538;54;19960;31
2022/05/29 09:04:03;;;;;;;;;;;22.80;82.30;;;;;;2603636;54;22256;31
2022/05/29 09:06:41;;;;;;;;;;;22.40;83.00;;;;;;2612771;46;20672;31
2022/05/29 09:09:18;;;;;;;;;;;21.90;81.50;;;;;;2603408;54;20815;31
2022/05/29 09:11:54;;;;;;;;;;;21.40;81.90;;;;;;2603639;54;19934;31
2022/05/29 09:14:33;;;;;;;;;;;20.80;84.40;;;;;;2603836;54;19934;31
2022/05/29 09:17:07;;;;;;;;;;;;;;;;;;2622128;46;19997;31
2022/05/29 09:22:21;;;;;;;;;;;20.20;84.90;;;;;;2603095;54;20076;31
2022/05/29 09:25:01;;;;;;;;;;;20.20;85.60;;;;;;2602356;54;19942;31
2022/05/29 09:27:35;;;;;;;;;;;20.50;86.40;;;;;;2602649;54;19943;31
2022/05/29 09:30:12;;;;;;;;;;;20.70;85.80;;;;;;2602646;54;20024;31
2022/05/29 09:32:50;;;;;;;;;;;20.70;83.80;;;;;;2603681;54;19939;31
2022/05/29 09:35:26;;;;;;;;;;;20.70;83.90;;;;;;2603312;54;19939;31
2022/05/29 09:38:03;;;;;;;;;;;20.50;84.10;;;;;;2622293;46;19993;31
2022/05/29 09:40:41;;;;;;;;;;;20.30;83.90;;;;;;2614748;46;20056;31
2022/05/29 09:43:25;;;;;;;;;;;20.20;84.10;;;;;;2603725;54;19935;31
2022/05/29 09:46:03;;;;;;;;;;;20.30;85.80;;;;;;2702198;39;20416;31
2022/05/29 09:51:28;;;;;;;;;;;20.60;84.80;;;;;;2622161;46;20773;31
2022/05/29 09:54:03;;;;;;;;;;;21.10;84.20;;;;;;2602669;54;19949;31
2022/05/29 09:56:38;;;;;;;;;;;21.50;86.90;;;;;;2603619;54;20071;31
2022/05/29 09:59:18;;;;;;;;;;;21.70;84.00;;;;;;2611570;46;19935;31
2022/05/29 10:01:52;;;;;;;;;;;21.70;85.70;;;;;;2605835;46;19942;31
2022/05/29 10:04:33;;;;;;;;;;;21.60;82.80;;;;;;2603518;54;20836;31
2022/05/29 10:07:15;;;;;;;;;;;21.60;84.10;;;;;;2602883;54;19968;31
2022/05/29 10:09:58;;;;;;;;;;;21.70;84.30;;;;;;2622122;46;20731;31
2022/05/29 10:12:38;;;;;;;;;;;22.00;81.50;;;;;;2622093;46;19961;31
2022/05/29 10:15:19;;;;;;;;;;;22.30;81.10;;;;;;2603241;54;19942;31
2022/05/29 10:17:53;;;;;;;;;;;22.10;79.30;;;;;;2620871;46;19934;31
2022/05/29 10:20:29;;;;;;;;;;;22.00;79.70;;;;;;2603260;54;19941;31
2022/05/29 10:23:09;;;;;;;;;;;21.80;77.80;;;;;;2603356;54;20684;31
2022/05/29 10:25:45;;;;;;;;;;;21.40;78.60;;;;;;2622122;46;19981;31
2022/05/29 10:28:20;;;;;;;;;;;21.10;80.00;;;;;;2603235;54;20819;31
2022/05/29 10:31:00;;;;;;;;;;;20.80;79.10;;;;;;2602777;54;20834;31
2022/05/29 10:33:35;;;;;;;;;;;20.50;78.30;;;;;;2603340;54;20802;31
2022/05/29 10:36:14;;;;;;;;;;;20.20;80.90;;;;;;2603019;54;20012;31
2022/05/29 10:38:49;;;;;;;;;;;20.10;80.70;;;;;;2612705;47;19942;31
2022/05/29 10:41:33;;;;;;;;;;;20.10;83.00;;;;;;2602178;54;20674;31
2022/05/29 10:44:09;;;;;;;;;;;20.30;83.00;;;;;;2603189;54;20707;31
2022/05/29 10:46:47;;;;;;;;;;;20.60;84.70;;;;;;2720440;39;20330;31
2022/05/29 10:49:27;;;;;;;;;;;20.80;80.80;;;;;;2622084;46;19961;31
2022/05/29 10:52:10;;;;;;;;;;;20.90;81.90;;;;;;2603264;54;19957;31
2022/05/29 10:55:23;;;;;;;;;;;20.70;79.20;;;;;;2621781;46;20821;31
2022/05/29 10:58:00;;;;;;;;;;;20.80;80.60;;;;;;2701662;39;20349;31
2022/05/29 11:00:41;;;;;;;;;;;20.80;79.20;;;;;;2603193;54;19989;31
2022/05/29 11:03:21;;;;;;;;;;;20.70;80.90;;;;;;2602399;54;19949;31
2022/05/29 11:05:59;;;;;;;;;;;20.70;77.50;;;;;;2603696;46;19941;31
2022/05/29 11:08:38;;;;;;;;;;;20.80;80.20;;;;;;2621525;46;19993;31
2022/05/29 11:11:16;;;;;;;;;;;20.90;80.20;;;;;;2621586;46;20834;31
2022/05/29 11:13:53;;;;;;;;;;;20.90;78.50;;;;;;2603229;54;20052;31
2022/05/29 11:19:17;;;;;;;;;;;20.90;78.00;;;;;;2621948;46;20741;31
2022/05/29 11:21:55;;;;;;;;;;;21.00;78.30;;;;;;2621671;46;20785;31
2022/05/29 11:24:47;;;;;;;;;;;21.10;78.80;;;;;;2621810;46;20743;31
2022/05/29 11:29:58;;;;;;;;;;;20.90;77.20;;;;;;2620713;46;19934;31
2022/05/29 11:32:42;;;;;;;;;;;20.80;78.90;;;;;;2621447;46;19984;31
2022/05/29 11:35:19;;;;;;;;;;;20.80;79.50;;;;;;2603243;54;19958;31
2022/05/29 11:38:00;;;;;;;;;;;20.70;79.50;;;;;;2603036;54;19935;31
2022/05/29 11:40:37;;;;;;;;;;;20.70;80.90;;;;;;2621788;46;20755;31
2022/05/29 11:43:14;;;;;;;;;;;20.70;79.40;;;;;;2614375;46;19941;31
2022/05/29 11:51:32;;;;;;;;;;;20.80;81.20;;;;;;2602846;54;20734;31
2022/05/29 11:54:08;;;;;;;;;;;20.90;78.20;;;;;;2602932;54;19985;31
2022/05/29 11:56:42;;;;;;;;;;;20.90;80.20;;;;;;2602969;54;20013;31
2022/05/29 11:59:18;;;;;;;;;;;20.90;77.70;;;;;;2701585;39;22200;31
2022/05/29 12:01:59;;;;;;;;;;;20.90;80.20;;;;;;2621460;46;20825;31
2022/05/29 12:04:34;;;;;;;;;;;21.00;79.50;;;;;;2621155;46;20686;31
2022/05/29 12:07:08;;;;;;;;;;;21.10;76.90;;;;;;2701660;39;22371;31
2022/05/29 12:09:43;;;;;;;;;;;21.10;77.30;;;;;;2620244;47;20656;31
2022/05/29 12:12:18;;;;;;;;;;;21.00;79.30;;;;;;2621698;47;20717;31
2022/05/29 12:14:54;;;;;;;;;;;21.00;78.60;;;;;;2602347;54;19943;31
2022/05/29 12:17:32;;;;;;;;;;;20.90;77.50;;;;;;2602917;54;19941;31
2022/05/29 12:20:09;;;;;;;;;;;21.00;80.30;;;;;;2621756;47;20658;31
2022/05/29 12:22:45;;;;;;;;;;;21.00;76.70;;;;;;2602026;54;19943;31
2022/05/29 12:25:26;;;;;;;;;;;21.10;78.20;;;;;;2602886;54;20801;31
2022/05/29 12:28:03;;;;;;;;;;;21.20;77.20;;;;;;2621043;47;20707;31
2022/05/29 12:30:40;;;;;;;;;;;21.10;78.30;;;;;;2602217;54;21149;31
2022/05/29 12:33:20;;;;;;;;;;;21.20;76.80;;;;;;2602787;54;19942;31
2022/05/29 12:35:56;;;;;;;;;;;21.20;78.30;;;;;;2610280;47;20817;31
2022/05/29 12:38:33;;;;;;;;;;;21.20;77.10;;;;;;2602003;54;19941;31
2022/05/29 12:41:13;;;;;;;;;;;21.30;76.40;;;;;;2602888;54;22252;31
2022/05/29 12:44:06;;;;;;;;;;;21.20;78.40;;;;;;2621258;47;19955;31
2022/05/29 12:46:50;;;;;;;;;;;21.10;77.90;;;;;;2603054;54;19961;31
2022/05/29 12:49:41;;;;;;;;;;;21.00;77.60;;;;;;2603048;54;19938;31
2022/05/29 12:52:22;;;;;;;;;;;20.90;77.20;;;;;;2621227;47;20726;31
2022/05/29 12:54:59;;;;;;;;;;;20.90;78.20;;;;;;2602627;54;19941;31
2022/05/29 12:57:38;;;;;;;;;;;20.80;77.20;;;;;;2602264;54;20801;31
2022/05/29 13:00:16;;;;;;;;;;;20.70;76.20;;;;;;2612090;47;20684;31
2022/05/29 13:03:04;;;;;;;;;;;20.50;77.30;;;;;;2602753;54;19950;31
2022/05/29 13:05:44;;;;;;;;;;;20.40;79.40;;;;;;2622165;46;20734;31
2022/05/29 13:08:34;;;;;;;;;;;20.30;79.90;;;;;;2603503;54;20920;31
2022/05/29 13:11:09;;;;;;;;;;;20.20;80.70;;;;;;2603739;54;19935;31
2022/05/29 13:13:46;;;;;;;;;;;20.30;81.60;;;;;;2622260;46;20778;31
2022/05/29 13:16:22;;;;;;;;;;;20.20;79.10;;;;;;2603664;54;19943;31
2022/05/29 13:21:51;;;;;;;;;;;20.20;80.10;;;;;;2621594;46;19934;31
2022/05/29 13:24:28;;;;;;;;;;;20.20;81.60;;;;;;2603094;54;19934;31
2022/05/29 13:27:32;;;;;;;;;;;20.20;82.10;;;;;;2603467;54;19935;31
2022/05/29 13:30:09;;;;;;;;;;;20.20;80.60;;;;;;2720357;39;20379;31
2022/05/29 13:32:47;;;;;;;;;;;20.20;82.60;;;;;;2603165;54;19935;31
2022/05/29 13:35:39;;;;;;;;;;;20.20;81.80;;;;;;2613088;46;20487;31
2022/05/29 13:38:14;;;;;;;;;;;20.20;81.70;;;;;;2603404;54;20793;31
2022/05/29 13:40:59;;;;;;;;;;;20.20;81.60;;;;;;2603672;54;19941;31
2022/05/29 13:43:38;;;;;;;;;;;20.10;81.50;;;;;;2621933;46;19953;31
2022/05/29 13:46:23;;;;;;;;;;;20.10;81.30;;;;;;2622237;46;19989;31
2022/05/29 13:49:08;;;;;;;;;;;20.10;81.00;;;;;;2621385;46;20708;31
2022/05/29 13:51:46;;;;;;;;;;;20.10;82.50;;;;;;2603584;54;19935;31
2022/05/29 13:54:23;;;;;;;;;;;20.00;78.60;;;;;;2603270;54;21376;31
2022/05/29 14:03:58;;;;;;;;;;;20.00;80.20;;;;;;2602628;54;20012;31
2022/05/29 14:06:39;;;;;;;;;;;19.90;81.60;;;;;;2621626;46;21253;31
2022/05/29 14:09:28;;;;;;;;;;;19.90;77.80;;;;;;2603117;54;21444;31
2022/05/29 14:12:03;;;;;;;;;;;19.90;79.90;;;;;;2701583;39;20495;31
2022/05/29 14:14:48;;;;;;;;;;;19.90;79.00;;;;;;2603527;54;20730;31
2022/05/29 14:17:26;;;;;;;;;;;20.00;79.70;;;;;;2719937;39;22183;31
2022/05/29 14:20:16;;;;;;;;;;;20.00;78.30;;;;;;2621805;46;19942;31
2022/05/29 14:23:01;;;;;;;;;;;20.00;77.40;;;;;;2603512;54;20777;31
2022/05/29 14:25:41;;;;;;;;;;;19.90;78.50;;;;;;2603560;54;20684;31
2022/05/29 14:28:20;;;;;;;;;;;19.80;78.70;;;;;;2603432;54;20742;31
2022/05/29 14:31:07;;;;;;;;;;;19.80;79.00;;;;;;2602462;54;19943;31
2022/05/29 14:33:46;;;;;;;;;;;19.90;79.80;;;;;;2621776;46;19942;31
2022/05/29 14:36:44;;;;;;;;;;;19.80;78.10;;;;;;2603420;54;20745;31
2022/05/29 14:39:25;;;;;;;;;;;19.70;79.40;;;;;;2621769;46;19934;31
2022/05/29 14:42:00;;;;;;;;;;;19.60;78.90;;;;;;2603406;54;19934;31
2022/05/29 14:44:37;;;;;;;;;;;19.70;78.80;;;;;;2603211;54;19968;31
2022/05/29 14:47:13;;;;;;;;;;;19.60;78.10;;;;;;2603503;54;20743;31
2022/05/29 14:49:50;;;;;;;;;;;19.60;78.70;;;;;;2602859;54;19941;31
2022/05/29 14:52:28;;;;;;;;;;;19.70;78.60;;;;;;2621687;46;20752;31
2022/05/29 14:55:05;;;;;;;;;;;19.60;78.00;;;;;;2612088;46;19957;31
2022/05/29 14:57:51;;;;;;;;;;;19.70;78.70;;;;;;2602627;54;20744;31
2022/05/29 15:00:27;;;;;;;;;;;19.60;79.30;;;;;;2603511;54;20685;31
2022/05/29 15:03:03;;;;;;;;;;;19.60;79.70;;;;;;2602998;54;19934;31
2022/05/29 15:05:40;;;;;;;;;;;19.50;78.20;;;;;;2621796;46;20733;31
2022/05/29 15:11:10;;;;;;;;;;;19.40;76.50;;;;;;2621520;46;19939;31
2022/05/29 15:16:37;;;;;;;;;;;19.30;77.70;;;;;;2603214;54;19943;31
2022/05/29 15:19:14;;;;;;;;;;;19.20;80.80;;;;;;2709203;39;21600;31
2022/05/29 15:24:41;;;;;;;;;;;19.10;80.20;;;;;;2603336;54;19942;31
2022/05/29 15:27:18;;;;;;;;;;;19.10;79.10;;;;;;2603097;54;20806;31
2022/05/29 15:30:10;;;;;;;;;;;19.10;78.60;;;;;;2603001;54;19960;31
2022/05/29 15:32:48;;;;;;;;;;;19.00;78.90;;;;;;2621425;46;19934;31
2022/05/29 15:35:27;;;;;;;;;;;19.00;79.60;;;;;;2602343;54;19941;31
2022/05/29 15:38:13;;;;;;;;;;;19.10;79.00;;;;;;2602195;54;20659;31
2022/05/29 15:40:55;;;;;;;;;;;19.00;79.80;;;;;;2621221;46;19946;31
2022/05/29 15:43:32;;;;;;;;;;;19.00;81.70;;;;;;2602129;54;19994;31
2022/05/29 15:46:25;;;;;;;;;;;18.90;80.50;;;;;;2621856;46;19935;31
2022/05/29 15:49:07;;;;;;;;;;;19.00;81.90;;;;;;2603306;54;20779;31
2022/05/29 15:51:59;;;;;;;;;;;19.00;79.90;;;;;;2603093;54;20782;31
2022/05/29 15:54:36;;;;;;;;;;;18.90;80.10;;;;;;2615682;46;19954;31
2022/05/29 15:57:16;;;;;;;;;;;18.90;81.20;;;;;;2620812;46;19980;31
2022/05/29 16:00:00;;;;;;;;;;;18.80;82.00;;;;;;2601785;54;19943;31
2022/05/29 16:02:52;;;;;;;;;;;18.80;82.30;;;;;;2602326;54;19950;31
2022/05/29 16:05:36;;;;;;;;;;;18.70;82.60;;;;;;2602832;54;19935;31
2022/05/29 16:08:25;;;;;;;;;;;18.70;81.40;;;;;;2603025;54;19935;31
2022/05/29 16:11:00;;;;;;;;;;;18.70;83.20;;;;;;2602802;54;20013;31
2022/05/29 16:13:55;;;;;;;;;;;18.70;81.90;;;;;;2621137;47;19993;31
2022/05/29 16:16:41;;;;;;;;;;;18.70;82.80;;;;;;2621582;47;20772;31
2022/05/29 16:19:30;;;;;;;;;;;18.70;80.10;;;;;;2720023;39;21258;31
2022/05/29 16:22:07;;;;;;;;;;;18.60;81.20;;;;;;2621283;47;19935;31
2022/05/29 16:24:45;;;;;;;;;;;18.60;79.90;;;;;;2602128;54;20735;31
2022/05/29 16:27:25;;;;;;;;;;;18.60;79.60;;;;;;2621428;47;20793;31
2022/05/29 16:30:04;;;;;;;;;;;18.50;81.10;;;;;;2621382;47;19935;31
2022/05/29 16:32:43;;;;;;;;;;;18.50;80.40;;;;;;2602811;54;20008;31